Aviation Digital Data Service (ADDS)

Output produced by METARs form (1203 UTC 16 July 2019)
found at http://www.aviationweather.gov/metar/data/
 
RPLC 161100Z 14002KT 700 -RA SCT020 OVC100 28/24 Q1003 RMK A2962
TAF RPLC 161100Z 1612/1718 25006KT 8000 SCT020 BKN100 TX30/1706Z TN23/1621Z 
     TEMPO 1612/1618 06008KT 6000 TS -SHRA FEW015CB SCT020 OVC100 TAF RPLB
161100Z 1612/1712 31007KT 9999 SCT018 BKN080 TX30/1706Z TN24/1622Z 
     TEMPO 1612/1618 23010G20KT 4000 +TSRA FEW016CB BKN018 OVC070
       
RPVD 160900Z 22008KT 9999 SCT015 OVC080 28/23 Q1004 RMK A2965
TAF RPVD 161100Z 1612/1712 22008KT 9999 FEW015 BKN080 
     TEMPO 1612/1618 20010KT -RA SCT014 OVC070
       
RPMD 161100Z 20010KT 180V240 9999 FEW016 SCT090 OVC290 29/23 Q1008 RMK A2977
TAF RPMD 161100Z 1612/1712 16008KT 9999 FEW016 SCT090 BKN290 
     TEMPO 1612/1618 20012KT -RA SCT016 BKN090 OVC290
       
RPLI 161107Z 260V350 2000 RA BKN108 OVC080 27/26 Q1000 RMK A2953
TAF RPLI 161100Z 1612/1712 33010KT 9999 FEW018 BKN090 
     TEMPO 1612/1618 01012G24KT 5000 TSRA SCT017CB SCT018 OVC080
       
RPVM 161100Z 24010KT 9999 FEW020 OVC100 28/23 Q1006 RMK A2971
TAF RPVM 161100Z 1612/1718 22012KT 9999 FEW020 BKN100 
     TEMPO 1612/1618 23014G24KT SCT020 OVC090 
     TEMPO 1618/1624 21014G25KT FEW020 BKN250
       
RPLL 161100Z 24014KT 9999 SCT022 OVC090 28/24 Q1003 NOSIG RMK A2962
TAF RPLL 161100Z 1612/1718 25010KT 9999 SCT022 BKN090 TX29/1706Z TN25/1621Z 
     TEMPO 1612/1618 23014KT 7000 -RA SCT020 OVC090 
     TEMPO 1618/1624 24014G24KT 5000 RA SCT020 OVC080
       
RPVP 161100Z 19004KT 9999-RA SCT019 OVC080 27/24 Q1006 RMK A2971
TAF RPVP 161100Z 1612/1712 22006KT 9999 FEW019 BKN080 
     TEMPO 1612/1618 31008KT 8000 -RA SCT019 OVC080
       
RPLB 161100Z 22005KT 200V260 9999 SCT018 OVC080 28/24 Q1003 NOSIG RMK A2962
TAF RPLB 161100Z 1612/1712 31007KT 9999 SCT018 BKN080 TX30/1706Z TN24/1622Z 
     TEMPO 1612/1618 23010G20KT 4000 +TSRA FEW016CB BKN018 OVC070
       
RPMR 160900Z 18004KT 9999 VCSH FEW018 BKN080 BKN250 27/23 Q1009 NOSIG RM A2980 VCSH SE SW QDS
TAF RPMR 161100Z 1612/1712 18008KT 9999 FEW018 BKN080 
     TEMPO 1612/1618 22007KT -RA SCT018 OVC080
       
RPMZ 161000Z 26008KT 8000 FEW017 OVC090 28/25 Q1008 RMK A2977
TAF RPMZ 161100Z 1612/1712 25008KT 9999 FEW017 BKN090 
     TEMPO 1612/1618 22012KT 8000 -TSRA FEW016CB SCT017 OVC090